KAZC

Details ICAO KAZC
Name COLORADO CITY MUNI
Region United States
Timezone America/Phoenix (UTC-7.0)
Plans Departing 7
Arriving 3
Stats Elevation 4,874 ft / 1,486 m (AMSL)
Location 36.959919° -113.013773°
Runways 2
Magnetic Variation 11.183° E
Sunrise 2017-12-15 14:39:34 UTC / 2017-12-15 07:39:34 Local
Sunset 2017-12-16 00:17:56 UTC / 2017-12-15 17:17:56 Local
Advertisement - Login to hide

Runways

ID Width Length Bearing (true) Bearing (mag) Surface Threshold Offset Overrun Length
01 60 ft / 18 m 5,105 ft / 1,556 m 27.87° 16.69° Asphalt 0 ft / 0 m 0 ft / 0 m
11 75 ft / 23 m 6,294 ft / 1,918 m 122.66° 111.48° Asphalt 0 ft / 0 m 0 ft / 0 m
19 60 ft / 18 m 5,105 ft / 1,556 m 207.88° 196.70° Asphalt 0 ft / 0 m 0 ft / 0 m
29 75 ft / 23 m 6,294 ft / 1,918 m 302.67° 291.49° Asphalt 0 ft / 0 m 0 ft / 0 m

Map

Weather


0- 5 10 15 20 25 30 35+ Temperature / ° C

Clouds and Precipitation
Forecast for 2017-12-15 18:00 UTC. Updated an hour ago

Ground ~20,000 ft ~40,000 ft Winds

METAR

KAZC 151615Z AUTO 00000KT 4SM HZ CLR M01/M13 A3036 RMK AO2

TAF

Not found

Frequencies

Recorded 118.37 MHz AWOS 3
Unicom 122.70 MHz CTAF/UNICOM
Warning: Do not use this data for real-world aviation or navigation. No guarantee of current accuracy is given.